sensor_id;sensor_type;location;lat;lon;timestamp;P1;durP1;ratioP1;P2;durP2;ratioP2
18695;SDS011;22617;43.690;27.956;2022-12-20T00:03:42;26.13;;;9.73;;
18695;SDS011;22617;43.690;27.956;2022-12-20T00:08:46;27.17;;;10.03;;
18695;SDS011;22617;43.690;27.956;2022-12-20T00:13:56;33.53;;;10.67;;
18695;SDS011;22617;43.690;27.956;2022-12-20T00:19:00;29.40;;;10.23;;
18695;SDS011;22617;43.690;27.956;2022-12-20T00:24:06;29.87;;;10.10;;
18695;SDS011;22617;43.690;27.956;2022-12-20T00:29:11;28.90;;;10.80;;
18695;SDS011;22617;43.690;27.956;2022-12-20T00:34:15;27.77;;;11.23;;
18695;SDS011;22617;43.690;27.956;2022-12-20T00:39:18;31.93;;;11.20;;
18695;SDS011;22617;43.690;27.956;2022-12-20T00:44:23;33.20;;;11.30;;
18695;SDS011;22617;43.690;27.956;2022-12-20T00:49:27;30.63;;;10.63;;
18695;SDS011;22617;43.690;27.956;2022-12-20T00:54:30;25.73;;;10.40;;
18695;SDS011;22617;43.690;27.956;2022-12-20T00:59:35;31.90;;;11.50;;
18695;SDS011;22617;43.690;27.956;2022-12-20T01:04:39;33.87;;;12.03;;
18695;SDS011;22617;43.690;27.956;2022-12-20T01:09:42;33.50;;;11.77;;
18695;SDS011;22617;43.690;27.956;2022-12-20T01:14:48;31.93;;;11.30;;
18695;SDS011;22617;43.690;27.956;2022-12-20T01:19:51;36.10;;;11.67;;
18695;SDS011;22617;43.690;27.956;2022-12-20T01:24:55;34.07;;;11.40;;
18695;SDS011;22617;43.690;27.956;2022-12-20T01:30:00;29.73;;;10.40;;
18695;SDS011;22617;43.690;27.956;2022-12-20T01:35:04;32.37;;;12.43;;
18695;SDS011;22617;43.690;27.956;2022-12-20T01:40:08;29.37;;;10.63;;
18695;SDS011;22617;43.690;27.956;2022-12-20T01:45:17;28.57;;;11.20;;
18695;SDS011;22617;43.690;27.956;2022-12-20T01:50:27;28.77;;;10.33;;
18695;SDS011;22617;43.690;27.956;2022-12-20T01:55:31;30.17;;;11.37;;
18695;SDS011;22617;43.690;27.956;2022-12-20T02:00:38;31.07;;;10.60;;
18695;SDS011;22617;43.690;27.956;2022-12-20T02:05:42;32.00;;;11.87;;
18695;SDS011;22617;43.690;27.956;2022-12-20T02:10:59;33.10;;;11.07;;
18695;SDS011;22617;43.690;27.956;2022-12-20T02:16:16;30.40;;;11.50;;
18695;SDS011;22617;43.690;27.956;2022-12-20T02:21:47;29.30;;;10.43;;
18695;SDS011;22617;43.690;27.956;2022-12-20T02:27:03;31.80;;;11.70;;
18695;SDS011;22617;43.690;27.956;2022-12-20T02:32:29;33.93;;;11.17;;
18695;SDS011;22617;43.690;27.956;2022-12-20T02:37:45;35.00;;;12.27;;
18695;SDS011;22617;43.690;27.956;2022-12-20T02:42:54;34.23;;;11.23;;
18695;SDS011;22617;43.690;27.956;2022-12-20T02:48:03;33.37;;;12.43;;
18695;SDS011;22617;43.690;27.956;2022-12-20T02:53:09;38.27;;;13.07;;
18695;SDS011;22617;43.690;27.956;2022-12-20T02:58:18;37.93;;;12.87;;
18695;SDS011;22617;43.690;27.956;2022-12-20T03:03:31;32.83;;;11.77;;
18695;SDS011;22617;43.690;27.956;2022-12-20T03:08:36;35.97;;;11.90;;
18695;SDS011;22617;43.690;27.956;2022-12-20T03:13:39;34.37;;;11.53;;
18695;SDS011;22617;43.690;27.956;2022-12-20T03:18:44;30.17;;;11.13;;
18695;SDS011;22617;43.690;27.956;2022-12-20T03:23:48;31.53;;;12.20;;
18695;SDS011;22617;43.690;27.956;2022-12-20T03:28:52;36.27;;;11.97;;
18695;SDS011;22617;43.690;27.956;2022-12-20T03:34:01;30.23;;;11.20;;
18695;SDS011;22617;43.690;27.956;2022-12-20T03:39:04;29.60;;;10.67;;
18695;SDS011;22617;43.690;27.956;2022-12-20T03:44:12;35.77;;;12.50;;
18695;SDS011;22617;43.690;27.956;2022-12-20T03:49:17;32.00;;;11.90;;
18695;SDS011;22617;43.690;27.956;2022-12-20T03:54:24;31.80;;;12.50;;
18695;SDS011;22617;43.690;27.956;2022-12-20T03:59:57;36.93;;;12.40;;
18695;SDS011;22617;43.690;27.956;2022-12-20T04:05:02;36.50;;;11.80;;
18695;SDS011;22617;43.690;27.956;2022-12-20T04:10:07;36.17;;;11.57;;
18695;SDS011;22617;43.690;27.956;2022-12-20T04:15:11;30.77;;;11.83;;
18695;SDS011;22617;43.690;27.956;2022-12-20T04:20:18;33.80;;;11.77;;
18695;SDS011;22617;43.690;27.956;2022-12-20T04:25:31;33.53;;;11.30;;
18695;SDS011;22617;43.690;27.956;2022-12-20T04:30:35;36.13;;;12.80;;
18695;SDS011;22617;43.690;27.956;2022-12-20T04:35:39;34.00;;;12.53;;
18695;SDS011;22617;43.690;27.956;2022-12-20T04:40:43;35.73;;;11.97;;
18695;SDS011;22617;43.690;27.956;2022-12-20T04:45:47;35.23;;;11.53;;
18695;SDS011;22617;43.690;27.956;2022-12-20T04:50:55;34.87;;;11.60;;
18695;SDS011;22617;43.690;27.956;2022-12-20T04:55:59;32.77;;;12.17;;
18695;SDS011;22617;43.690;27.956;2022-12-20T05:01:03;34.17;;;12.87;;
18695;SDS011;22617;43.690;27.956;2022-12-20T05:06:17;32.90;;;11.57;;
18695;SDS011;22617;43.690;27.956;2022-12-20T05:11:21;35.53;;;12.40;;
18695;SDS011;22617;43.690;27.956;2022-12-20T05:16:25;33.80;;;11.90;;
18695;SDS011;22617;43.690;27.956;2022-12-20T05:21:30;37.87;;;12.40;;
18695;SDS011;22617;43.690;27.956;2022-12-20T05:26:52;38.27;;;11.73;;
18695;SDS011;22617;43.690;27.956;2022-12-20T05:31:55;34.43;;;12.10;;
18695;SDS011;22617;43.690;27.956;2022-12-20T05:37:01;38.07;;;12.57;;
18695;SDS011;22617;43.690;27.956;2022-12-20T05:42:07;45.20;;;13.43;;
18695;SDS011;22617;43.690;27.956;2022-12-20T05:47:10;37.33;;;13.10;;
18695;SDS011;22617;43.690;27.956;2022-12-20T05:52:16;36.40;;;12.00;;
18695;SDS011;22617;43.690;27.956;2022-12-20T05:57:20;36.60;;;13.67;;
18695;SDS011;22617;43.690;27.956;2022-12-20T06:02:23;37.83;;;13.30;;
18695;SDS011;22617;43.690;27.956;2022-12-20T06:07:36;39.17;;;13.13;;
18695;SDS011;22617;43.690;27.956;2022-12-20T06:12:39;36.87;;;12.77;;
18695;SDS011;22617;43.690;27.956;2022-12-20T06:17:43;40.00;;;12.87;;
18695;SDS011;22617;43.690;27.956;2022-12-20T06:22:48;37.87;;;13.07;;
18695;SDS011;22617;43.690;27.956;2022-12-20T06:27:52;31.07;;;12.10;;
18695;SDS011;22617;43.690;27.956;2022-12-20T06:32:57;45.80;;;15.20;;
18695;SDS011;22617;43.690;27.956;2022-12-20T06:38:02;38.97;;;13.80;;
18695;SDS011;22617;43.690;27.956;2022-12-20T06:43:08;36.63;;;12.20;;
18695;SDS011;22617;43.690;27.956;2022-12-20T06:48:12;35.47;;;12.70;;
18695;SDS011;22617;43.690;27.956;2022-12-20T06:53:18;39.90;;;14.13;;
18695;SDS011;22617;43.690;27.956;2022-12-20T06:58:24;39.10;;;14.60;;
18695;SDS011;22617;43.690;27.956;2022-12-20T07:03:27;39.57;;;13.87;;
18695;SDS011;22617;43.690;27.956;2022-12-20T07:08:32;34.10;;;12.47;;
18695;SDS011;22617;43.690;27.956;2022-12-20T07:13:36;36.13;;;13.30;;
18695;SDS011;22617;43.690;27.956;2022-12-20T07:18:39;41.73;;;13.87;;
18695;SDS011;22617;43.690;27.956;2022-12-20T07:23:44;37.77;;;12.97;;
18695;SDS011;22617;43.690;27.956;2022-12-20T07:28:48;31.57;;;12.17;;
18695;SDS011;22617;43.690;27.956;2022-12-20T07:33:51;33.20;;;12.77;;
18695;SDS011;22617;43.690;27.956;2022-12-20T07:38:56;34.97;;;13.37;;
18695;SDS011;22617;43.690;27.956;2022-12-20T07:44:00;33.80;;;13.13;;
18695;SDS011;22617;43.690;27.956;2022-12-20T07:49:03;35.13;;;12.40;;
18695;SDS011;22617;43.690;27.956;2022-12-20T07:54:10;34.23;;;12.73;;
18695;SDS011;22617;43.690;27.956;2022-12-20T07:59:17;35.00;;;12.53;;
18695;SDS011;22617;43.690;27.956;2022-12-20T08:04:26;35.40;;;12.80;;
18695;SDS011;22617;43.690;27.956;2022-12-20T08:09:33;34.73;;;12.73;;
18695;SDS011;22617;43.690;27.956;2022-12-20T08:14:41;32.63;;;13.03;;
18695;SDS011;22617;43.690;27.956;2022-12-20T08:19:46;29.87;;;11.70;;
18695;SDS011;22617;43.690;27.956;2022-12-20T08:24:51;33.50;;;12.50;;
18695;SDS011;22617;43.690;27.956;2022-12-20T08:29:54;29.03;;;11.20;;
18695;SDS011;22617;43.690;27.956;2022-12-20T08:34:58;27.23;;;10.70;;
18695;SDS011;22617;43.690;27.956;2022-12-20T08:40:05;22.37;;;9.37;;
18695;SDS011;22617;43.690;27.956;2022-12-20T08:45:10;25.80;;;9.53;;
18695;SDS011;22617;43.690;27.956;2022-12-20T08:50:14;22.30;;;9.20;;
18695;SDS011;22617;43.690;27.956;2022-12-20T08:55:19;26.27;;;9.37;;
18695;SDS011;22617;43.690;27.956;2022-12-20T09:00:30;26.90;;;9.63;;
18695;SDS011;22617;43.690;27.956;2022-12-20T09:05:34;25.00;;;10.00;;
18695;SDS011;22617;43.690;27.956;2022-12-20T09:10:39;25.47;;;9.97;;
18695;SDS011;22617;43.690;27.956;2022-12-20T09:15:43;25.30;;;8.50;;
18695;SDS011;22617;43.690;27.956;2022-12-20T09:20:46;23.93;;;9.43;;
18695;SDS011;22617;43.690;27.956;2022-12-20T09:25:51;23.17;;;9.07;;
18695;SDS011;22617;43.690;27.956;2022-12-20T09:30:56;15.93;;;6.97;;
18695;SDS011;22617;43.690;27.956;2022-12-20T09:36:01;19.23;;;7.77;;
18695;SDS011;22617;43.690;27.956;2022-12-20T09:41:08;17.90;;;8.13;;
18695;SDS011;22617;43.690;27.956;2022-12-20T09:46:23;18.03;;;7.23;;
18695;SDS011;22617;43.690;27.956;2022-12-20T09:51:34;15.97;;;6.50;;
18695;SDS011;22617;43.690;27.956;2022-12-20T09:56:55;16.50;;;6.43;;
18695;SDS011;22617;43.690;27.956;2022-12-20T10:02:07;12.73;;;5.50;;
18695;SDS011;22617;43.690;27.956;2022-12-20T10:07:33;12.27;;;5.77;;
18695;SDS011;22617;43.690;27.956;2022-12-20T10:12:45;16.70;;;5.33;;
18695;SDS011;22617;43.690;27.956;2022-12-20T10:18:03;13.57;;;5.47;;
18695;SDS011;22617;43.690;27.956;2022-12-20T10:23:21;15.43;;;5.70;;
18695;SDS011;22617;43.690;27.956;2022-12-20T10:28:35;11.37;;;5.37;;
18695;SDS011;22617;43.690;27.956;2022-12-20T10:33:39;12.23;;;4.77;;
18695;SDS011;22617;43.690;27.956;2022-12-20T10:38:47;11.13;;;5.67;;
18695;SDS011;22617;43.690;27.956;2022-12-20T10:43:55;14.30;;;5.33;;
18695;SDS011;22617;43.690;27.956;2022-12-20T10:54:38;12.27;;;5.73;;
18695;SDS011;22617;43.690;27.956;2022-12-20T10:59:44;11.27;;;4.63;;
18695;SDS011;22617;43.690;27.956;2022-12-20T11:04:58;12.47;;;5.00;;
18695;SDS011;22617;43.690;27.956;2022-12-20T11:10:19;10.63;;;5.03;;
18695;SDS011;22617;43.690;27.956;2022-12-20T11:15:26;12.00;;;4.97;;
18695;SDS011;22617;43.690;27.956;2022-12-20T11:20:36;8.27;;;3.93;;
18695;SDS011;22617;43.690;27.956;2022-12-20T11:25:48;12.73;;;5.00;;
18695;SDS011;22617;43.690;27.956;2022-12-20T11:31:09;12.70;;;5.53;;
18695;SDS011;22617;43.690;27.956;2022-12-20T11:36:21;11.80;;;5.27;;
18695;SDS011;22617;43.690;27.956;2022-12-20T11:41:34;18.87;;;7.07;;
18695;SDS011;22617;43.690;27.956;2022-12-20T11:46:50;20.77;;;7.77;;
18695;SDS011;22617;43.690;27.956;2022-12-20T11:52:08;13.77;;;5.40;;
18695;SDS011;22617;43.690;27.956;2022-12-20T11:57:19;11.30;;;5.20;;
18695;SDS011;22617;43.690;27.956;2022-12-20T12:02:30;9.50;;;4.83;;
18695;SDS011;22617;43.690;27.956;2022-12-20T12:07:37;11.33;;;5.00;;
18695;SDS011;22617;43.690;27.956;2022-12-20T12:12:44;9.80;;;4.93;;
18695;SDS011;22617;43.690;27.956;2022-12-20T12:17:49;15.03;;;5.57;;
18695;SDS011;22617;43.690;27.956;2022-12-20T12:23:02;12.63;;;6.03;;
18695;SDS011;22617;43.690;27.956;2022-12-20T12:28:09;9.73;;;4.60;;
18695;SDS011;22617;43.690;27.956;2022-12-20T12:33:18;10.57;;;5.20;;
18695;SDS011;22617;43.690;27.956;2022-12-20T12:38:37;11.60;;;5.00;;
18695;SDS011;22617;43.690;27.956;2022-12-20T12:44:04;10.70;;;5.00;;
18695;SDS011;22617;43.690;27.956;2022-12-20T12:49:34;9.70;;;4.40;;
18695;SDS011;22617;43.690;27.956;2022-12-20T12:54:38;12.63;;;5.20;;
18695;SDS011;22617;43.690;27.956;2022-12-20T12:59:44;11.43;;;5.47;;
18695;SDS011;22617;43.690;27.956;2022-12-20T13:04:54;19.40;;;7.50;;
18695;SDS011;22617;43.690;27.956;2022-12-20T13:10:04;12.20;;;6.17;;
18695;SDS011;22617;43.690;27.956;2022-12-20T13:15:46;17.97;;;7.53;;
18695;SDS011;22617;43.690;27.956;2022-12-20T13:26:51;14.97;;;6.07;;
18695;SDS011;22617;43.690;27.956;2022-12-20T13:31:55;16.73;;;7.17;;
18695;SDS011;22617;43.690;27.956;2022-12-20T13:36:58;16.30;;;7.70;;
18695;SDS011;22617;43.690;27.956;2022-12-20T13:42:11;15.53;;;7.03;;
18695;SDS011;22617;43.690;27.956;2022-12-20T13:47:31;13.83;;;5.93;;
18695;SDS011;22617;43.690;27.956;2022-12-20T13:52:39;14.23;;;6.07;;
18695;SDS011;22617;43.690;27.956;2022-12-20T13:57:47;18.60;;;6.43;;
18695;SDS011;22617;43.690;27.956;2022-12-20T14:02:50;15.37;;;6.27;;
18695;SDS011;22617;43.690;27.956;2022-12-20T14:07:58;12.57;;;5.83;;
18695;SDS011;22617;43.690;27.956;2022-12-20T14:13:13;16.40;;;8.20;;
18695;SDS011;22617;43.690;27.956;2022-12-20T14:18:23;13.73;;;6.70;;
18695;SDS011;22617;43.690;27.956;2022-12-20T14:23:30;15.33;;;7.73;;
18695;SDS011;22617;43.690;27.956;2022-12-20T14:28:41;17.97;;;7.93;;
18695;SDS011;22617;43.690;27.956;2022-12-20T14:33:47;16.70;;;7.20;;
18695;SDS011;22617;43.690;27.956;2022-12-20T14:38:52;14.20;;;6.90;;
18695;SDS011;22617;43.690;27.956;2022-12-20T14:43:57;15.47;;;6.33;;
18695;SDS011;22617;43.690;27.956;2022-12-20T14:49:04;15.70;;;6.27;;
18695;SDS011;22617;43.690;27.956;2022-12-20T14:54:20;15.93;;;6.97;;
18695;SDS011;22617;43.690;27.956;2022-12-20T14:59:58;15.93;;;7.33;;
18695;SDS011;22617;43.690;27.956;2022-12-20T15:05:21;16.37;;;7.60;;
18695;SDS011;22617;43.690;27.956;2022-12-20T15:10:58;16.43;;;8.00;;
18695;SDS011;22617;43.690;27.956;2022-12-20T15:16:12;18.13;;;7.90;;
18695;SDS011;22617;43.690;27.956;2022-12-20T15:21:21;20.97;;;8.93;;
18695;SDS011;22617;43.690;27.956;2022-12-20T15:26:31;18.67;;;8.27;;
18695;SDS011;22617;43.690;27.956;2022-12-20T15:31:36;22.87;;;9.73;;
18695;SDS011;22617;43.690;27.956;2022-12-20T15:36:39;30.80;;;11.03;;
18695;SDS011;22617;43.690;27.956;2022-12-20T15:41:44;24.80;;;10.87;;
18695;SDS011;22617;43.690;27.956;2022-12-20T15:46:51;39.03;;;16.20;;
18695;SDS011;22617;43.690;27.956;2022-12-20T15:51:55;59.27;;;24.30;;
18695;SDS011;22617;43.690;27.956;2022-12-20T15:57:00;57.13;;;23.33;;
18695;SDS011;22617;43.690;27.956;2022-12-20T16:02:07;49.23;;;20.70;;
18695;SDS011;22617;43.690;27.956;2022-12-20T16:07:22;46.23;;;19.67;;
18695;SDS011;22617;43.690;27.956;2022-12-20T16:12:27;33.00;;;15.10;;
18695;SDS011;22617;43.690;27.956;2022-12-20T16:17:34;26.77;;;11.53;;
18695;SDS011;22617;43.690;27.956;2022-12-20T16:22:38;31.43;;;13.50;;
18695;SDS011;22617;43.690;27.956;2022-12-20T16:27:41;34.33;;;14.33;;
18695;SDS011;22617;43.690;27.956;2022-12-20T16:32:46;28.80;;;12.83;;
18695;SDS011;22617;43.690;27.956;2022-12-20T16:37:50;27.67;;;12.17;;
18695;SDS011;22617;43.690;27.956;2022-12-20T16:42:54;26.67;;;10.80;;
18695;SDS011;22617;43.690;27.956;2022-12-20T16:47:59;22.30;;;10.47;;
18695;SDS011;22617;43.690;27.956;2022-12-20T16:53:03;27.03;;;11.00;;
18695;SDS011;22617;43.690;27.956;2022-12-20T16:58:07;17.97;;;8.43;;
18695;SDS011;22617;43.690;27.956;2022-12-20T17:03:12;20.40;;;10.37;;
18695;SDS011;22617;43.690;27.956;2022-12-20T17:08:17;20.70;;;10.13;;
18695;SDS011;22617;43.690;27.956;2022-12-20T17:13:38;21.27;;;9.37;;
18695;SDS011;22617;43.690;27.956;2022-12-20T17:18:44;20.03;;;7.33;;
18695;SDS011;22617;43.690;27.956;2022-12-20T17:23:49;17.43;;;7.03;;
18695;SDS011;22617;43.690;27.956;2022-12-20T17:28:54;20.53;;;8.33;;
18695;SDS011;22617;43.690;27.956;2022-12-20T17:34:02;17.97;;;8.23;;
18695;SDS011;22617;43.690;27.956;2022-12-20T17:39:06;17.53;;;8.07;;
18695;SDS011;22617;43.690;27.956;2022-12-20T17:44:13;17.70;;;7.97;;
18695;SDS011;22617;43.690;27.956;2022-12-20T17:49:22;17.13;;;6.80;;
18695;SDS011;22617;43.690;27.956;2022-12-20T17:54:26;14.03;;;6.53;;
18695;SDS011;22617;43.690;27.956;2022-12-20T17:59:40;12.37;;;5.63;;
18695;SDS011;22617;43.690;27.956;2022-12-20T18:04:46;15.90;;;6.60;;
18695;SDS011;22617;43.690;27.956;2022-12-20T18:09:50;13.97;;;5.90;;
18695;SDS011;22617;43.690;27.956;2022-12-20T18:14:53;12.80;;;5.80;;
18695;SDS011;22617;43.690;27.956;2022-12-20T18:19:59;11.20;;;4.83;;
18695;SDS011;22617;43.690;27.956;2022-12-20T18:25:04;14.33;;;5.77;;
18695;SDS011;22617;43.690;27.956;2022-12-20T18:30:09;12.00;;;5.17;;
18695;SDS011;22617;43.690;27.956;2022-12-20T18:35:15;15.37;;;4.87;;
18695;SDS011;22617;43.690;27.956;2022-12-20T18:40:19;11.40;;;5.37;;
18695;SDS011;22617;43.690;27.956;2022-12-20T18:45:26;16.70;;;5.00;;
18695;SDS011;22617;43.690;27.956;2022-12-20T18:50:31;10.23;;;4.80;;
18695;SDS011;22617;43.690;27.956;2022-12-20T18:55:37;14.20;;;5.87;;
18695;SDS011;22617;43.690;27.956;2022-12-20T19:00:41;14.07;;;5.70;;
18695;SDS011;22617;43.690;27.956;2022-12-20T19:05:46;12.23;;;5.10;;
18695;SDS011;22617;43.690;27.956;2022-12-20T19:10:56;12.27;;;5.23;;
18695;SDS011;22617;43.690;27.956;2022-12-20T19:16:01;12.93;;;5.23;;
18695;SDS011;22617;43.690;27.956;2022-12-20T19:21:09;12.30;;;5.13;;
18695;SDS011;22617;43.690;27.956;2022-12-20T19:26:15;12.47;;;5.10;;
18695;SDS011;22617;43.690;27.956;2022-12-20T19:31:21;14.07;;;4.77;;
18695;SDS011;22617;43.690;27.956;2022-12-20T19:36:28;16.67;;;6.70;;
18695;SDS011;22617;43.690;27.956;2022-12-20T19:41:33;11.00;;;4.60;;
18695;SDS011;22617;43.690;27.956;2022-12-20T19:46:37;13.10;;;5.40;;
18695;SDS011;22617;43.690;27.956;2022-12-20T19:51:42;12.33;;;4.53;;
18695;SDS011;22617;43.690;27.956;2022-12-20T19:56:46;14.23;;;5.67;;
18695;SDS011;22617;43.690;27.956;2022-12-20T20:01:50;15.53;;;5.87;;
18695;SDS011;22617;43.690;27.956;2022-12-20T20:06:55;13.43;;;5.20;;
18695;SDS011;22617;43.690;27.956;2022-12-20T20:11:59;17.67;;;5.77;;
18695;SDS011;22617;43.690;27.956;2022-12-20T20:17:02;23.17;;;8.57;;
18695;SDS011;22617;43.690;27.956;2022-12-20T20:22:07;21.97;;;8.43;;
18695;SDS011;22617;43.690;27.956;2022-12-20T20:27:12;22.00;;;8.33;;
18695;SDS011;22617;43.690;27.956;2022-12-20T20:32:16;25.47;;;9.57;;
18695;SDS011;22617;43.690;27.956;2022-12-20T20:37:20;25.77;;;9.30;;
18695;SDS011;22617;43.690;27.956;2022-12-20T20:42:24;24.33;;;8.20;;
18695;SDS011;22617;43.690;27.956;2022-12-20T20:47:27;22.87;;;8.13;;
18695;SDS011;22617;43.690;27.956;2022-12-20T20:52:32;22.03;;;8.40;;
18695;SDS011;22617;43.690;27.956;2022-12-20T20:57:36;28.13;;;9.70;;
18695;SDS011;22617;43.690;27.956;2022-12-20T21:02:39;22.10;;;8.93;;
18695;SDS011;22617;43.690;27.956;2022-12-20T21:07:45;19.33;;;8.30;;
18695;SDS011;22617;43.690;27.956;2022-12-20T21:12:48;25.10;;;9.50;;
18695;SDS011;22617;43.690;27.956;2022-12-20T21:17:51;26.77;;;10.33;;
18695;SDS011;22617;43.690;27.956;2022-12-20T21:22:56;24.00;;;9.50;;
18695;SDS011;22617;43.690;27.956;2022-12-20T21:28:01;19.40;;;8.60;;
18695;SDS011;22617;43.690;27.956;2022-12-20T21:33:05;25.93;;;8.60;;
18695;SDS011;22617;43.690;27.956;2022-12-20T21:38:10;24.80;;;10.17;;
18695;SDS011;22617;43.690;27.956;2022-12-20T21:43:13;23.53;;;9.03;;
18695;SDS011;22617;43.690;27.956;2022-12-20T21:48:17;20.23;;;8.00;;
18695;SDS011;22617;43.690;27.956;2022-12-20T21:53:22;19.93;;;8.07;;
18695;SDS011;22617;43.690;27.956;2022-12-20T21:58:26;18.57;;;8.60;;
18695;SDS011;22617;43.690;27.956;2022-12-20T22:03:31;19.80;;;8.20;;
18695;SDS011;22617;43.690;27.956;2022-12-20T22:08:37;19.43;;;7.80;;
18695;SDS011;22617;43.690;27.956;2022-12-20T22:13:40;17.57;;;7.47;;
18695;SDS011;22617;43.690;27.956;2022-12-20T22:18:47;28.27;;;9.93;;
18695;SDS011;22617;43.690;27.956;2022-12-20T22:23:54;18.37;;;8.87;;
18695;SDS011;22617;43.690;27.956;2022-12-20T22:28:58;18.93;;;7.97;;
18695;SDS011;22617;43.690;27.956;2022-12-20T22:34:03;23.13;;;8.73;;
18695;SDS011;22617;43.690;27.956;2022-12-20T22:39:09;19.93;;;7.00;;
18695;SDS011;22617;43.690;27.956;2022-12-20T22:44:12;16.97;;;7.37;;
18695;SDS011;22617;43.690;27.956;2022-12-20T22:49:16;16.17;;;6.40;;
18695;SDS011;22617;43.690;27.956;2022-12-20T22:54:21;15.83;;;6.63;;
18695;SDS011;22617;43.690;27.956;2022-12-20T22:59:25;18.20;;;6.53;;
18695;SDS011;22617;43.690;27.956;2022-12-20T23:04:28;11.33;;;5.10;;
18695;SDS011;22617;43.690;27.956;2022-12-20T23:09:33;15.20;;;6.40;;
18695;SDS011;22617;43.690;27.956;2022-12-20T23:14:36;15.50;;;6.27;;
18695;SDS011;22617;43.690;27.956;2022-12-20T23:20:05;14.13;;;6.30;;
18695;SDS011;22617;43.690;27.956;2022-12-20T23:25:28;16.37;;;6.50;;
18695;SDS011;22617;43.690;27.956;2022-12-20T23:30:32;14.57;;;5.90;;
18695;SDS011;22617;43.690;27.956;2022-12-20T23:35:35;14.90;;;5.90;;
18695;SDS011;22617;43.690;27.956;2022-12-20T23:40:40;13.70;;;5.93;;
18695;SDS011;22617;43.690;27.956;2022-12-20T23:45:44;15.10;;;5.70;;
18695;SDS011;22617;43.690;27.956;2022-12-20T23:50:53;13.00;;;5.93;;
18695;SDS011;22617;43.690;27.956;2022-12-20T23:55:59;12.40;;;5.40;;
